Time;durP1;ratioP1;P1;durP2;ratioP2;P2;SDS_P1;SDS_P2;PMS_P1;PMS_P2;Temp;Humidity;BMP_temperature;BMP_pressure;BME280_temperature;BME280_humidity;BME280_pressure;Samples;Min_cycle;Max_cycle;Signal;HPM_P1;HPM_P2
2022/07/01 00:02:25;;;;;;;18.92;14.23;;;17.50;99.90;;;;;;4956737;29;20027;-67
2022/07/01 00:04:51;;;;;;;19.95;14.90;;;17.50;99.90;;;;;;4956549;28;20042;-67
2022/07/01 00:07:35;;;;;;;21.50;16.17;;;17.50;99.90;;;;;;4956597;28;20101;-67
2022/07/01 00:10:01;;;;;;;20.05;15.07;;;17.50;99.90;;;;;;4956680;28;20543;-67
2022/07/01 00:12:27;;;;;;;19.73;15.30;;;17.50;99.90;;;;;;4956503;28;20424;-67
2022/07/01 00:14:53;;;;;;;20.02;16.58;;;17.50;99.90;;;;;;4956400;29;20027;-67
2022/07/01 00:17:19;;;;;;;18.08;15.43;;;17.50;99.90;;;;;;4956357;28;20481;-67
2022/07/01 00:19:45;;;;;;;19.95;16.40;;;17.50;99.90;;;;;;4956102;28;20038;-66
2022/07/01 00:22:11;;;;;;;19.80;15.68;;;17.50;99.90;;;;;;4956448;29;20062;-67
2022/07/01 00:24:36;;;;;;;20.42;15.70;;;17.50;99.90;;;;;;4956716;29;20526;-67
2022/07/01 00:27:03;;;;;;;19.38;15.02;;;17.50;99.90;;;;;;4956105;28;20130;-67
2022/07/01 00:29:30;;;;;;;17.58;13.68;;;17.60;99.90;;;;;;4956285;28;20185;-67
2022/07/01 00:31:56;;;;;;;18.58;13.23;;;17.50;99.90;;;;;;4955955;29;20122;-67
2022/07/01 00:34:22;;;;;;;16.02;12.32;;;17.50;99.90;;;;;;4956074;28;20468;-67
2022/07/01 00:36:48;;;;;;;18.48;13.48;;;17.50;99.90;;;;;;4954849;29;20031;-67
2022/07/01 00:39:13;;;;;;;19.08;13.75;;;17.50;99.90;;;;;;4955775;28;20546;-67
2022/07/01 00:41:39;;;;;;;15.90;11.98;;;17.50;99.90;;;;;;4956028;28;20414;-67
2022/07/01 00:44:05;;;;;;;16.42;12.90;;;17.50;99.90;;;;;;4955909;28;20036;-67
2022/07/01 00:46:33;;;;;;;16.17;11.50;;;17.50;99.90;;;;;;4955760;29;20129;-67
2022/07/01 00:49:00;;;;;;;14.80;11.35;;;17.40;99.90;;;;;;4955718;28;20042;-67
2022/07/01 00:51:26;;;;;;;13.95;10.85;;;17.40;99.90;;;;;;4955936;28;20027;-67
2022/07/01 00:53:53;;;;;;;13.88;9.85;;;17.40;99.90;;;;;;4955918;28;20097;-67
2022/07/01 00:56:19;;;;;;;14.10;10.02;;;17.30;99.90;;;;;;4955441;29;20039;-67
2022/07/01 00:58:46;;;;;;;13.48;9.65;;;17.30;99.90;;;;;;4955560;28;20020;-67
2022/07/01 01:01:12;;;;;;;11.95;8.45;;;17.30;99.90;;;;;;4954763;28;20522;-66
2022/07/01 01:03:38;;;;;;;12.73;9.35;;;17.40;99.90;;;;;;4955609;29;20106;-67
2022/07/01 01:06:05;;;;;;;13.30;8.75;;;17.40;99.90;;;;;;4955426;29;20117;-68
2022/07/01 01:08:31;;;;;;;11.20;8.65;;;17.40;99.90;;;;;;4955348;28;20508;-67
2022/07/01 01:10:57;;;;;;;10.95;8.30;;;17.40;99.90;;;;;;4955549;29;20505;-67
2022/07/01 01:13:23;;;;;;;10.68;8.35;;;17.40;99.90;;;;;;4954043;29;20130;-67
2022/07/01 01:15:49;;;;;;;11.88;8.80;;;17.40;99.90;;;;;;4955572;28;20126;-67
2022/07/01 01:18:15;;;;;;;11.23;8.23;;;17.30;99.90;;;;;;4955239;28;20527;-67
2022/07/01 01:20:41;;;;;;;10.93;8.27;;;17.30;99.90;;;;;;4955239;29;20178;-67
2022/07/01 01:23:07;;;;;;;13.18;8.30;;;17.30;99.90;;;;;;4955315;29;20023;-67
2022/07/01 01:25:34;;;;;;;10.65;8.18;;;17.30;99.90;;;;;;4955167;29;20027;-67
2022/07/01 01:28:01;;;;;;;11.95;8.30;;;17.30;99.90;;;;;;4955095;28;20396;-67
2022/07/01 01:30:27;;;;;;;10.48;8.05;;;17.20;99.90;;;;;;4953692;29;20035;-67
2022/07/01 01:32:53;;;;;;;11.43;8.20;;;17.20;99.90;;;;;;4955131;29;20113;-68
2022/07/01 01:35:20;;;;;;;11.85;8.50;;;17.20;99.90;;;;;;4955176;29;20330;-67
2022/07/01 01:37:46;;;;;;;12.80;8.60;;;17.20;99.90;;;;;;4954820;28;20477;-67
2022/07/01 01:40:16;;;;;;;9.95;7.63;;;17.30;99.90;;;;;;4954861;29;20039;-67
2022/07/01 01:42:43;;;;;;;11.07;7.80;;;17.20;99.90;;;;;;4955015;29;20555;-68
2022/07/01 01:45:09;;;;;;;10.98;6.97;;;17.20;99.90;;;;;;4955394;29;20310;-67
2022/07/01 01:47:35;;;;;;;10.38;7.15;;;17.20;99.90;;;;;;4954641;28;20035;-67
2022/07/01 01:50:03;;;;;;;8.63;6.70;;;17.30;99.90;;;;;;4954576;29;20035;-67
2022/07/01 01:52:29;;;;;;;9.32;5.90;;;17.30;99.90;;;;;;4954793;29;20046;-67
2022/07/01 01:54:55;;;;;;;8.80;5.57;;;17.30;99.90;;;;;;4954581;28;20031;-67
2022/07/01 01:57:21;;;;;;;8.73;5.70;;;17.30;99.90;;;;;;4953200;29;20031;-67
2022/07/01 01:59:47;;;;;;;9.63;6.07;;;17.30;99.90;;;;;;4953204;28;20035;-67
2022/07/01 02:02:13;;;;;;;7.93;5.53;;;17.30;99.90;;;;;;4954486;29;20031;-67
2022/07/01 02:04:39;;;;;;;8.65;5.78;;;17.30;99.90;;;;;;4954578;29;20032;-67
2022/07/01 02:07:04;;;;;;;9.80;6.10;;;17.30;99.90;;;;;;4954348;29;20053;-67
2022/07/01 02:09:31;;;;;;;10.63;5.97;;;17.30;99.90;;;;;;4954022;28;20031;-67
2022/07/01 02:11:57;;;;;;;11.02;6.07;;;17.30;99.90;;;;;;4954350;29;20039;-68
2022/07/01 02:14:23;;;;;;;11.77;6.30;;;17.30;99.90;;;;;;4954238;28;20038;-67
2022/07/01 02:16:49;;;;;;;10.60;6.47;;;17.30;99.90;;;;;;4952877;29;20042;-67
2022/07/01 02:19:15;;;;;;;11.52;7.32;;;17.30;99.90;;;;;;4954192;28;20035;-67
2022/07/01 02:21:41;;;;;;;15.90;8.65;;;17.30;99.90;;;;;;4954175;29;20530;-67
2022/07/01 02:24:07;;;;;;;12.77;7.32;;;17.40;99.90;;;;;;4954127;29;20106;-68
2022/07/01 02:26:33;;;;;;;12.18;6.97;;;17.30;99.90;;;;;;4953868;29;20468;-67
2022/07/01 02:28:59;;;;;;;15.80;7.57;;;17.30;99.90;;;;;;4953930;28;20027;-68
2022/07/01 02:31:25;;;;;;;13.60;7.43;;;17.30;99.90;;;;;;4953996;29;20035;-67
2022/07/01 02:33:51;;;;;;;12.95;7.07;;;17.20;99.90;;;;;;4954064;28;20043;-67
2022/07/01 02:36:17;;;;;;;12.95;7.15;;;17.20;99.90;;;;;;4953938;28;20031;-67
2022/07/01 02:38:43;;;;;;;14.65;7.97;;;17.20;99.90;;;;;;4953747;28;20448;-67
2022/07/01 02:41:09;;;;;;;13.00;7.47;;;17.20;99.90;;;;;;4953720;29;20090;-67
2022/07/01 02:43:36;;;;;;;15.88;8.68;;;17.20;99.90;;;;;;4953862;29;20473;-67
2022/07/01 02:46:02;;;;;;;13.05;7.28;;;17.20;99.90;;;;;;4953576;29;20502;-67
2022/07/01 02:48:28;;;;;;;13.90;7.20;;;17.30;99.90;;;;;;4953977;28;20031;-67
2022/07/01 02:50:54;;;;;;;9.98;6.65;;;17.20;99.90;;;;;;4953512;29;20531;-67
2022/07/01 02:53:21;;;;;;;12.65;6.85;;;17.20;99.90;;;;;;4953600;29;20042;-67
2022/07/01 02:55:47;;;;;;;12.60;7.03;;;17.20;99.90;;;;;;4953307;29;20117;-67
2022/07/01 02:58:13;;;;;;;11.63;6.78;;;17.20;99.90;;;;;;4953465;28;20135;-68
2022/07/01 03:00:39;;;;;;;13.23;6.90;;;17.20;99.90;;;;;;4953331;29;20078;-67
2022/07/01 03:03:05;;;;;;;11.63;6.60;;;17.20;99.90;;;;;;4953425;28;20500;-68
2022/07/01 03:05:31;;;;;;;14.90;7.20;;;17.20;99.90;;;;;;4953504;28;20030;-67
2022/07/01 03:07:57;;;;;;;11.10;6.95;;;17.20;99.90;;;;;;4953289;28;20039;-67
2022/07/01 03:10:23;;;;;;;12.25;7.40;;;17.10;99.90;;;;;;4951836;29;20039;-67
2022/07/01 03:12:49;;;;;;;10.95;7.10;;;17.10;99.90;;;;;;4953254;29;20489;-67
2022/07/01 03:15:16;;;;;;;12.15;6.68;;;17.20;99.90;;;;;;4953326;29;20031;-68
2022/07/01 03:17:44;;;;;;;14.48;7.63;;;17.10;99.90;;;;;;4953096;28;20122;-67
2022/07/01 03:20:13;;;;;;;14.57;7.27;;;17.20;99.90;;;;;;4952962;29;20485;-67
2022/07/01 03:22:39;;;;;;;12.70;7.55;;;17.20;99.90;;;;;;4953111;29;20282;-67
2022/07/01 03:25:06;;;;;;;12.07;7.32;;;17.20;99.90;;;;;;4952625;28;20027;-67
2022/07/01 03:27:34;;;;;;;10.65;7.72;;;17.20;99.90;;;;;;4953136;28;20074;-67
2022/07/01 03:30:01;;;;;;;14.35;7.80;;;17.20;99.90;;;;;;4952958;29;20051;-67
2022/07/01 03:32:27;;;;;;;14.02;7.40;;;17.20;99.90;;;;;;4952936;29;20509;-67
2022/07/01 03:34:53;;;;;;;13.98;8.48;;;17.20;99.90;;;;;;4953260;29;20034;-67
2022/07/01 03:37:20;;;;;;;14.98;8.05;;;17.20;99.90;;;;;;4953052;29;20440;-68
2022/07/01 03:39:47;;;;;;;12.82;8.50;;;17.20;99.90;;;;;;4952965;28;20056;-67
2022/07/01 03:42:13;;;;;;;15.90;9.38;;;17.20;99.90;;;;;;4953087;29;20023;-67
2022/07/01 03:44:39;;;;;;;15.13;9.05;;;17.20;99.90;;;;;;4952858;29;20031;-67
2022/07/01 03:47:06;;;;;;;15.07;9.10;;;17.20;99.90;;;;;;4952689;29;20078;-67
2022/07/01 03:49:36;;;;;;;14.27;8.93;;;17.20;99.90;;;;;;4952711;28;20114;-68
2022/07/01 03:52:05;;;;;;;14.88;8.95;;;17.20;99.90;;;;;;4952764;29;20579;-67
2022/07/01 03:54:32;;;;;;;14.63;8.70;;;17.20;99.90;;;;;;4952841;29;20035;-68
2022/07/01 03:57:10;;;;;;;14.52;8.45;;;17.10;99.90;;;;;;4952487;28;20481;-67
2022/07/01 03:59:39;;;;;;;17.88;9.45;;;17.20;99.90;;;;;;4952692;28;20544;-67
2022/07/01 04:02:06;;;;;;;14.90;8.82;;;17.10;99.90;;;;;;4952920;29;20064;-67
2022/07/01 04:04:33;;;;;;;13.48;8.13;;;17.10;99.90;;;;;;4952663;29;20481;-67
2022/07/01 04:07:00;;;;;;;12.63;8.00;;;17.20;99.90;;;;;;4952571;28;20041;-68
2022/07/01 04:09:28;;;;;;;11.00;7.95;;;17.20;99.90;;;;;;4952601;28;20036;-67
2022/07/01 04:11:54;;;;;;;13.43;8.05;;;17.10;99.90;;;;;;4952870;29;20027;-67
2022/07/01 04:14:21;;;;;;;12.98;7.40;;;17.20;99.90;;;;;;4952511;29;20035;-68
2022/07/01 04:16:47;;;;;;;14.27;7.47;;;17.20;99.90;;;;;;4952828;29;20038;-67
2022/07/01 04:19:17;;;;;;;11.80;6.90;;;17.20;99.90;;;;;;4952288;28;20032;-67
2022/07/01 04:24:28;;;;;;;11.40;6.53;;;17.20;99.90;;;;;;4952562;28;20106;-68
2022/07/01 04:26:55;;;;;;;13.45;7.25;;;17.20;99.90;;;;;;4952454;29;20031;-68
2022/07/01 04:29:21;;;;;;;11.45;6.53;;;17.20;99.90;;;;;;4952280;28;20039;-67
2022/07/01 04:31:47;;;;;;;10.20;6.88;;;17.20;99.90;;;;;;4952357;29;20035;-67
2022/07/01 04:34:14;;;;;;;10.82;6.43;;;17.20;99.90;;;;;;4952764;29;20424;-67
2022/07/01 04:36:39;;;;;;;12.48;6.70;;;17.20;99.90;;;;;;4953401;28;20031;-68
2022/07/01 04:39:06;;;;;;;13.98;6.68;;;17.20;99.90;;;;;;4954629;28;20499;-67
2022/07/01 04:44:18;;;;;;;12.30;6.30;;;17.10;99.90;;;;;;4955928;28;20082;-67
2022/07/01 04:46:45;;;;;;;9.52;5.97;;;17.10;99.90;;;;;;4954738;29;20111;-67
2022/07/01 04:49:10;;;;;;;11.75;6.90;;;17.10;99.90;;;;;;4955674;28;20480;-67
2022/07/01 04:51:36;;;;;;;10.65;5.60;;;17.10;99.90;;;;;;4955788;29;20031;-67
2022/07/01 04:54:04;;;;;;;11.68;5.55;;;17.10;99.90;;;;;;4955797;29;20078;-67
2022/07/01 04:56:30;;;;;;;6.97;5.20;;;17.10;99.90;;;;;;4955477;28;20065;-67
2022/07/01 04:58:56;;;;;;;11.55;6.00;;;17.00;99.90;;;;;;4955818;28;20038;-67
2022/07/01 05:01:23;;;;;;;11.40;6.30;;;17.10;99.90;;;;;;4955578;28;20067;-67
2022/07/01 05:03:48;;;;;;;10.70;6.18;;;17.10;99.90;;;;;;4955708;29;20362;-67
2022/07/01 05:06:14;;;;;;;10.65;6.70;;;17.10;99.90;;;;;;4955524;29;20031;-67
2022/07/01 05:08:40;;;;;;;12.30;5.93;;;17.10;99.90;;;;;;4955336;28;20042;-67
2022/07/01 05:11:06;;;;;;;11.55;5.53;;;17.00;99.90;;;;;;4955476;29;20112;-67
2022/07/01 05:13:33;;;;;;;10.30;6.13;;;17.10;99.90;;;;;;4955417;29;20034;-67
2022/07/01 05:15:59;;;;;;;8.65;4.80;;;17.10;99.90;;;;;;4955194;29;20039;-67
2022/07/01 05:23:54;;;;;;;9.73;5.30;;;17.10;99.90;;;;;;4955209;28;20024;-67
2022/07/01 05:26:20;;;;;;;10.27;5.10;;;17.10;99.90;;;;;;4955041;29;20034;-67
2022/07/01 05:28:47;;;;;;;11.07;5.25;;;17.10;99.90;;;;;;4955155;28;20429;-67
2022/07/01 05:31:13;;;;;;;9.90;5.72;;;17.00;99.90;;;;;;4953619;29;20418;-68
2022/07/01 05:33:39;;;;;;;12.52;5.70;;;17.10;99.90;;;;;;4955127;29;20037;-67
2022/07/01 05:36:05;;;;;;;8.23;5.30;;;17.00;99.90;;;;;;4953575;29;20166;-67
2022/07/01 05:38:31;;;;;;;16.98;6.35;;;17.10;99.90;;;;;;4954740;28;20023;-67
2022/07/01 05:40:57;;;;;;;8.98;4.90;;;17.10;99.90;;;;;;4955031;29;20507;-67
2022/07/01 05:43:23;;;;;;;11.55;6.07;;;17.10;99.90;;;;;;4954822;29;20031;-67
2022/07/01 05:45:49;;;;;;;9.75;6.30;;;17.10;99.90;;;;;;4954748;28;20400;-67
2022/07/01 05:48:15;;;;;;;13.02;6.13;;;17.10;99.90;;;;;;4954500;28;20039;-67
2022/07/01 05:50:43;;;;;;;11.73;5.75;;;17.10;99.90;;;;;;4954585;29;20035;-67
2022/07/01 05:53:09;;;;;;;12.25;5.82;;;17.10;99.90;;;;;;4954660;29;20484;-67
2022/07/01 05:55:35;;;;;;;11.80;5.82;;;17.00;99.90;;;;;;4954579;29;20038;-67
2022/07/01 05:58:01;;;;;;;13.38;5.43;;;17.00;99.90;;;;;;4954623;28;20456;-67
2022/07/01 06:00:30;;;;;;;11.32;6.30;;;17.00;99.90;;;;;;4954507;29;20038;-67
2022/07/01 06:02:56;;;;;;;14.40;6.53;;;17.00;99.90;;;;;;4954582;29;20027;-68
2022/07/01 06:05:22;;;;;;;13.90;7.10;;;17.00;99.90;;;;;;4954226;28;20031;-67
2022/07/01 06:07:48;;;;;;;14.07;7.40;;;17.00;99.90;;;;;;4954147;28;20023;-67
2022/07/01 06:10:13;;;;;;;11.38;6.15;;;17.00;99.90;;;;;;4954204;28;20031;-67
2022/07/01 06:12:40;;;;;;;11.68;6.22;;;17.10;99.90;;;;;;4954305;29;20058;-67
2022/07/01 06:15:08;;;;;;;12.75;6.85;;;17.10;99.90;;;;;;4953051;29;20043;-67
2022/07/01 06:17:35;;;;;;;8.90;6.70;;;17.10;99.90;;;;;;4954032;28;20032;-67
2022/07/01 06:20:01;;;;;;;10.02;7.25;;;17.10;99.90;;;;;;4953806;29;20035;-67
2022/07/01 06:22:27;;;;;;;14.07;6.55;;;17.20;99.90;;;;;;4954245;29;20093;-67
2022/07/01 06:24:53;;;;;;;14.65;7.47;;;17.20;99.90;;;;;;4954066;29;20542;-67
2022/07/01 06:27:19;;;;;;;13.15;7.13;;;17.20;99.90;;;;;;4953989;28;20114;-67
2022/07/01 06:29:45;;;;;;;12.18;7.53;;;17.20;99.90;;;;;;4953808;28;20039;-67
2022/07/01 06:32:11;;;;;;;14.48;8.13;;;17.20;99.90;;;;;;4953897;29;20090;-67
2022/07/01 06:34:38;;;;;;;12.30;7.53;;;17.20;99.90;;;;;;4953810;29;20042;-68
2022/07/01 06:37:05;;;;;;;15.93;8.25;;;17.20;99.90;;;;;;4953790;29;20031;-68
2022/07/01 06:39:31;;;;;;;11.50;7.22;;;17.20;99.90;;;;;;4953778;28;20428;-67
2022/07/01 06:41:57;;;;;;;14.80;7.07;;;17.20;99.90;;;;;;4954020;29;20066;-67
2022/07/01 06:44:23;;;;;;;9.85;6.93;;;17.20;99.90;;;;;;4954131;29;20062;-68
2022/07/01 06:46:49;;;;;;;13.52;7.60;;;17.20;99.90;;;;;;4953588;29;20042;-68
2022/07/01 06:49:15;;;;;;;10.40;6.47;;;17.30;99.90;;;;;;4953385;28;20027;-68
2022/07/01 06:51:41;;;;;;;13.52;6.97;;;17.30;99.90;;;;;;4953543;29;20043;-67
2022/07/01 06:54:07;;;;;;;13.18;6.88;;;17.40;99.90;;;;;;4953592;29;20035;-68
2022/07/01 06:56:33;;;;;;;11.95;7.20;;;17.40;99.90;;;;;;4953792;29;20050;-67
2022/07/01 06:58:59;;;;;;;9.82;6.68;;;17.50;99.90;;;;;;4953019;28;20027;-67
2022/07/01 07:01:25;;;;;;;9.38;6.50;;;17.40;99.90;;;;;;4953393;29;20034;-68
2022/07/01 07:03:50;;;;;;;12.88;6.28;;;17.40;99.90;;;;;;4952206;29;20440;-68
2022/07/01 07:06:16;;;;;;;10.55;5.43;;;17.50;99.90;;;;;;4953257;29;20389;-68
2022/07/01 07:08:42;;;;;;;7.97;4.70;;;17.50;99.90;;;;;;4953434;28;20031;-67
2022/07/01 07:11:08;;;;;;;10.63;4.05;;;17.50;99.90;;;;;;4953328;29;20236;-67
2022/07/01 07:13:35;;;;;;;7.43;4.40;;;17.50;99.90;;;;;;4953496;29;20471;-68
2022/07/01 07:16:02;;;;;;;9.48;4.32;;;17.50;99.90;;;;;;4952932;29;20035;-67
2022/07/01 07:18:28;;;;;;;9.48;4.68;;;17.50;99.90;;;;;;4953066;28;20102;-68
2022/07/01 07:20:54;;;;;;;7.05;4.15;;;17.50;99.90;;;;;;4953080;29;20023;-67
2022/07/01 07:23:19;;;;;;;8.90;4.82;;;17.50;99.90;;;;;;4953255;29;20020;-68
2022/07/01 07:25:45;;;;;;;7.45;4.28;;;17.60;99.90;;;;;;4953053;29;20027;-68
2022/07/01 07:28:12;;;;;;;7.38;4.00;;;17.60;99.90;;;;;;4953188;28;20027;-68
2022/07/01 07:30:38;;;;;;;7.65;3.85;;;17.60;99.90;;;;;;4951779;29;20457;-68
2022/07/01 07:33:04;;;;;;;8.50;4.18;;;17.60;99.90;;;;;;4953299;29;20117;-68
2022/07/01 07:35:30;;;;;;;7.18;3.97;;;17.60;99.90;;;;;;4952889;29;20132;-68
2022/07/01 07:37:56;;;;;;;11.13;4.25;;;17.60;99.90;;;;;;4952734;28;20540;-67
2022/07/01 07:40:22;;;;;;;9.32;4.45;;;17.60;99.90;;;;;;4952876;28;20038;-68
2022/07/01 07:42:48;;;;;;;8.38;4.57;;;17.70;99.90;;;;;;4952997;29;20031;-67
2022/07/01 07:45:15;;;;;;;11.75;6.15;;;17.70;99.90;;;;;;4952890;29;20055;-67
2022/07/01 07:47:44;;;;;;;8.63;4.40;;;17.80;99.90;;;;;;4952615;28;20031;-68
2022/07/01 07:50:10;;;;;;;7.60;3.90;;;17.80;99.90;;;;;;4951463;29;20027;-68
2022/07/01 07:52:37;;;;;;;8.60;3.75;;;17.80;99.90;;;;;;4952839;29;20107;-68
2022/07/01 07:55:04;;;;;;;6.95;3.50;;;17.90;99.90;;;;;;4952793;29;20042;-67
2022/07/01 07:57:30;;;;;;;6.20;4.25;;;17.90;99.90;;;;;;4952559;28;20500;-67
2022/07/01 07:59:56;;;;;;;6.13;3.63;;;17.90;99.90;;;;;;4952563;29;20031;-68
2022/07/01 08:02:22;;;;;;;6.20;3.42;;;17.90;99.90;;;;;;4952727;28;20460;-67
2022/07/01 08:04:48;;;;;;;7.20;3.63;;;17.90;99.90;;;;;;4952798;29;20119;-67
2022/07/01 08:07:14;;;;;;;6.18;3.33;;;17.80;99.90;;;;;;4951527;29;20114;-67
2022/07/01 08:09:45;;;;;;;8.18;3.75;;;17.90;99.90;;;;;;4952447;28;20039;-69
2022/07/01 08:12:12;;;;;;;6.80;4.07;;;17.90;99.90;;;;;;4956162;28;20103;-67
2022/07/01 08:14:38;;;;;;;5.88;3.67;;;18.00;99.90;;;;;;4956560;29;20035;-67
2022/07/01 08:17:04;;;;;;;6.15;3.30;;;18.00;99.90;;;;;;4956296;29;20063;-68
2022/07/01 08:19:30;;;;;;;7.93;4.05;;;18.10;99.90;;;;;;4954886;28;20077;-68
2022/07/01 08:21:56;;;;;;;6.00;3.20;;;18.00;99.90;;;;;;4956384;29;20027;-68
2022/07/01 08:24:22;;;;;;;8.27;3.95;;;18.00;99.90;;;;;;4956383;29;20023;-67
2022/07/01 08:26:48;;;;;;;4.43;3.05;;;18.00;99.90;;;;;;4954893;29;20055;-68
2022/07/01 08:29:14;;;;;;;5.40;3.70;;;18.00;99.90;;;;;;4956167;28;20067;-67
2022/07/01 08:31:40;;;;;;;7.80;3.72;;;18.10;99.90;;;;;;4954964;29;20082;-68
2022/07/01 08:34:09;;;;;;;7.13;3.85;;;18.10;99.90;;;;;;4956107;29;20393;-68
2022/07/01 08:36:36;;;;;;;9.65;3.95;;;18.10;99.90;;;;;;4954812;29;20047;-68
2022/07/01 08:39:03;;;;;;;8.10;4.40;;;18.10;99.90;;;;;;4955811;28;20035;-67
2022/07/01 08:41:29;;;;;;;6.82;3.55;;;18.10;99.90;;;;;;4956020;29;20023;-68
2022/07/01 08:43:55;;;;;;;6.53;3.72;;;18.10;99.90;;;;;;4955897;29;20036;-68
2022/07/01 08:46:22;;;;;;;7.75;3.30;;;18.00;99.90;;;;;;4954556;29;20094;-68
2022/07/01 08:48:49;;;;;;;7.85;3.60;;;18.00;99.90;;;;;;4955653;28;20035;-67
2022/07/01 08:51:15;;;;;;;7.40;3.47;;;18.00;99.90;;;;;;4955962;29;20078;-68
2022/07/01 08:53:41;;;;;;;7.40;3.70;;;18.00;99.90;;;;;;4955660;28;20035;-68
2022/07/01 08:58:52;;;;;;;7.90;4.20;;;18.00;99.90;;;;;;4955591;28;20094;-68
2022/07/01 09:01:21;;;;;;;8.75;4.00;;;18.00;99.90;;;;;;4955710;28;20074;-67
2022/07/01 09:03:48;;;;;;;6.85;3.67;;;18.10;99.90;;;;;;4956083;29;20035;-68
2022/07/01 09:06:22;;;;;;;8.85;4.60;;;18.10;99.90;;;;;;4954288;29;20115;-68
2022/07/01 09:08:48;;;;;;;7.13;3.00;;;18.20;99.90;;;;;;4955391;28;20031;-67
2022/07/01 09:11:25;;;;;;;7.82;2.95;;;18.30;99.90;;;;;;4955533;29;20023;-67
2022/07/01 09:14:09;;;;;;;5.15;2.70;;;18.30;99.90;;;;;;4955458;29;20034;-68
2022/07/01 09:16:50;;;;;;;7.28;2.97;;;18.40;99.40;;;;;;4955373;29;20183;-68
2022/07/01 09:19:17;;;;;;;7.65;3.45;;;18.50;99.40;;;;;;4955216;28;20047;-67
2022/07/01 09:21:48;;;;;;;5.70;3.28;;;18.50;99.60;;;;;;4955056;28;20104;-68
2022/07/01 09:24:25;;;;;;;9.90;4.22;;;18.50;99.50;;;;;;4953764;29;20120;-68
2022/07/01 09:27:00;;;;;;;12.43;4.72;;;18.60;99.50;;;;;;4955246;29;20035;-68
2022/07/01 09:29:27;;;;;;;8.95;4.40;;;18.60;98.80;;;;;;4954882;28;20029;-68
2022/07/01 09:31:53;;;;;;;6.88;3.80;;;18.70;98.50;;;;;;4955328;28;20031;-68
2022/07/01 09:34:20;;;;;;;6.70;3.30;;;18.70;98.30;;;;;;4955139;29;20556;-68
2022/07/01 09:36:57;;;;;;;8.27;2.75;;;18.80;98.30;;;;;;4955202;29;20027;-68
2022/07/01 09:39:23;;;;;;;5.70;2.72;;;18.90;97.10;;;;;;4954974;28;20059;-68
2022/07/01 09:41:53;;;;;;;6.30;3.17;;;18.90;96.80;;;;;;4954956;29;20028;-68
2022/07/01 09:44:19;;;;;;;5.78;2.17;;;19.00;96.60;;;;;;4954995;29;20038;-68
2022/07/01 09:46:56;;;;;;;6.25;2.42;;;19.00;97.00;;;;;;4954978;29;20038;-68
2022/07/01 09:49:23;;;;;;;8.10;2.10;;;19.00;96.60;;;;;;4955202;28;20440;-68
2022/07/01 09:51:52;;;;;;;2.90;1.52;;;19.00;96.90;;;;;;4954945;29;20036;-68
2022/07/01 09:54:18;;;;;;;3.70;1.70;;;19.00;97.10;;;;;;4955001;29;20041;-68
2022/07/01 09:56:44;;;;;;;6.55;2.20;;;19.00;96.30;;;;;;4954996;29;20031;-68
2022/07/01 09:59:11;;;;;;;6.55;2.42;;;19.10;96.10;;;;;;4954557;28;20107;-68
2022/07/01 10:01:39;;;;;;;4.78;1.77;;;19.20;96.00;;;;;;4953456;29;20039;-68
2022/07/01 10:04:08;;;;;;;3.15;1.30;;;19.20;95.20;;;;;;4954683;29;20031;-68
2022/07/01 10:06:52;;;;;;;4.32;1.30;;;19.30;95.20;;;;;;4954409;29;20032;-68
2022/07/01 10:09:40;;;;;;;5.10;1.45;;;19.30;94.00;;;;;;4953141;28;20031;-68
2022/07/01 10:12:25;;;;;;;4.05;1.35;;;19.30;93.30;;;;;;4954473;29;20027;-68
2022/07/01 10:14:52;;;;;;;5.68;1.40;;;19.30;93.50;;;;;;4953207;29;20039;-68
2022/07/01 10:17:28;;;;;;;3.88;1.42;;;19.30;93.80;;;;;;4952902;29;20043;-68
2022/07/01 10:20:07;;;;;;;4.15;1.75;;;19.40;94.10;;;;;;4954230;29;20082;-68
2022/07/01 10:22:36;;;;;;;6.10;1.30;;;19.40;93.80;;;;;;4954264;29;20031;-68
2022/07/01 10:25:25;;;;;;;;;;;19.40;93.00;;;;;;4954654;29;20090;-68
2022/07/01 10:28:21;;;;;;;4.82;1.27;;;19.40;93.10;;;;;;4952608;28;20435;-68
2022/07/01 10:30:51;;;;;;;5.18;1.50;;;19.40;93.50;;;;;;4952730;29;20039;-68
2022/07/01 10:33:46;;;;;;;3.35;1.20;;;19.40;93.30;;;;;;4968380;23;20050;-69
2022/07/01 10:36:21;;;;;;;3.13;1.10;;;19.50;93.90;;;;;;4953708;29;20031;-69
2022/07/01 10:39:13;;;;;;;4.75;1.63;;;19.50;93.20;;;;;;4953676;28;20031;-69
2022/07/01 10:41:55;;;;;;;5.05;1.48;;;19.50;93.00;;;;;;4953881;29;20046;-69
2022/07/01 10:44:23;;;;;;;4.93;1.60;;;19.60;92.70;;;;;;4953931;28;20041;-70
2022/07/01 10:46:56;;;;;;;3.22;1.30;;;19.60;92.10;;;;;;4953746;29;20039;-70
2022/07/01 10:49:38;;;;;;;7.38;1.50;;;19.60;92.30;;;;;;4953638;28;20031;-69
2022/07/01 10:52:14;;;;;;;4.22;1.17;;;19.50;92.80;;;;;;4953744;29;20035;-70
2022/07/01 10:54:40;;;;;;;3.65;1.45;;;19.60;93.00;;;;;;4953838;29;20032;-70
2022/07/01 10:57:19;;;;;;;4.63;1.20;;;19.60;92.80;;;;;;4953317;29;20435;-70
2022/07/01 10:59:49;;;;;;;3.28;1.20;;;19.60;92.80;;;;;;4953327;28;20550;-70
2022/07/01 11:02:22;;;;;;;3.10;1.20;;;19.60;92.20;;;;;;4953664;29;20094;-70
2022/07/01 11:04:49;;;;;;;6.00;1.30;;;19.60;92.30;;;;;;4953343;29;20085;-70
2022/07/01 11:07:15;;;;;;;3.60;1.33;;;19.60;92.50;;;;;;4953266;29;20110;-70
2022/07/01 11:09:41;;;;;;;5.03;1.83;;;19.60;92.70;;;;;;4953371;28;20505;-69
2022/07/01 11:12:08;;;;;;;7.00;1.75;;;19.70;92.30;;;;;;4953343;29;20543;-69
2022/07/01 11:14:40;;;;;;;5.47;2.00;;;19.70;92.40;;;;;;4952108;29;20130;-70
2022/07/01 11:17:08;;;;;;;3.80;1.63;;;19.70;92.30;;;;;;4953209;29;20118;-70
2022/07/01 11:19:34;;;;;;;5.45;1.60;;;19.80;92.30;;;;;;4951501;28;20122;-69
2022/07/01 11:22:02;;;;;;;6.05;1.90;;;19.80;92.10;;;;;;4953550;29;20555;-70
2022/07/01 11:24:28;;;;;;;3.42;1.40;;;19.90;91.70;;;;;;4953177;28;20118;-70
2022/07/01 11:27:07;;;;;;;5.93;1.40;;;19.90;91.30;;;;;;4953127;29;20054;-70
2022/07/01 11:29:33;;;;;;;;;;;19.90;91.40;;;;;;4953278;28;20400;-70
2022/07/01 11:31:59;;;;;;;4.53;1.52;;;19.90;90.70;;;;;;4952924;28;19925;-69
2022/07/01 11:34:28;;;;;;;4.05;1.45;;;19.90;90.70;;;;;;4953089;29;20035;-69
2022/07/01 11:39:41;;;;;;;4.13;1.63;;;19.90;88.40;;;;;;4952806;28;19937;-70
2022/07/01 11:42:09;;;;;;;3.28;1.30;;;20.00;89.40;;;;;;4952991;29;20035;-69
2022/07/01 11:44:40;;;;;;;4.03;1.25;;;20.00;89.90;;;;;;4952721;29;20116;-70
2022/07/01 11:47:21;;;;;;;4.40;1.33;;;20.00;88.00;;;;;;4952398;29;20090;-70
2022/07/01 11:49:48;;;;;;;2.83;1.27;;;20.10;86.30;;;;;;4952562;28;20035;-69
2022/07/01 11:52:19;;;;;;;3.35;1.40;;;20.10;85.30;;;;;;4952831;29;20034;-69
2022/07/01 11:54:47;;;;;;;4.38;2.25;;;20.10;86.10;;;;;;4952605;29;20031;-70
2022/07/01 11:57:24;;;;;;;3.78;1.17;;;20.00;86.80;;;;;;4952705;29;20106;-69
2022/07/01 11:59:52;;;;;;;4.85;1.10;;;20.00;87.80;;;;;;4952492;29;20031;-69
2022/07/01 12:02:21;;;;;;;3.45;1.23;;;20.00;86.70;;;;;;4952715;29;20027;-70
2022/07/01 12:04:49;;;;;;;4.40;0.98;;;20.10;86.20;;;;;;4951380;29;20031;-70
2022/07/01 12:07:18;;;;;;;2.95;1.20;;;20.20;85.40;;;;;;4952450;29;20031;-70
2022/07/01 12:09:44;;;;;;;2.35;1.10;;;20.20;83.90;;;;;;4952376;28;20062;-70
2022/07/01 12:12:18;;;;;;;3.22;1.08;;;20.30;84.00;;;;;;4952665;29;20031;-70
2022/07/01 12:14:56;;;;;;;2.47;0.95;;;20.20;84.70;;;;;;4953032;29;20066;-69
2022/07/01 12:17:23;;;;;;;2.97;1.02;;;20.20;84.40;;;;;;4952761;29;20058;-70
2022/07/01 12:19:50;;;;;;;4.25;1.52;;;20.20;84.60;;;;;;4952393;29;20114;-69
2022/07/01 12:22:19;;;;;;;3.25;1.00;;;20.30;84.50;;;;;;4952538;29;20535;-70
2022/07/01 12:24:46;;;;;;;5.30;1.13;;;20.30;84.50;;;;;;4952738;29;20031;-70
2022/07/01 12:27:13;;;;;;;2.20;0.90;;;20.40;84.60;;;;;;4952281;29;20372;-69
2022/07/01 12:29:50;;;;;;;3.95;1.00;;;20.50;83.20;;;;;;4952244;28;20035;-69
2022/07/01 12:32:25;;;;;;;2.92;0.90;;;20.70;79.80;;;;;;4952213;29;20047;-69
2022/07/01 12:34:55;;;;;;;2.58;1.02;;;20.90;79.80;;;;;;4952479;29;20155;-70
2022/07/01 12:37:30;;;;;;;3.60;0.90;;;21.10;79.30;;;;;;4952322;29;20031;-69
2022/07/01 12:39:58;;;;;;;2.60;1.38;;;21.20;78.40;;;;;;4952301;29;20163;-69
2022/07/01 12:42:26;;;;;;;3.50;0.93;;;21.50;77.70;;;;;;4952467;29;20069;-70
2022/07/01 12:44:54;;;;;;;2.72;1.10;;;21.70;75.40;;;;;;4950997;29;20081;-70
2022/07/01 12:47:24;;;;;;;1.88;0.88;;;21.80;76.40;;;;;;4952132;29;20171;-69
2022/07/01 12:50:07;;;;;;;2.53;0.75;;;22.00;77.00;;;;;;4952219;28;20031;-69
2022/07/01 12:52:33;;;;;;;3.03;1.17;;;22.20;76.30;;;;;;4951201;29;20392;-70
2022/07/01 12:54:59;;;;;;;2.65;0.70;;;22.30;75.00;;;;;;4952156;29;20107;-70
2022/07/01 12:57:32;;;;;;;3.08;0.82;;;22.40;75.50;;;;;;4951240;28;20046;-69
2022/07/01 12:59:59;;;;;;;2.40;1.00;;;22.40;75.50;;;;;;4955716;29;20100;-70
2022/07/01 13:02:25;;;;;;;3.13;1.20;;;22.40;74.00;;;;;;4955678;29;20380;-69